• Join FlightAware (Why Join?)
  • Login
  • US Flag 
07:54PM EDT


 

Airport Tracker/Info


-or-


 

Live Flight TrackerFlight Track Log ✈ DAL268 ✈ 22-Oct-2013 ✈ KSFO - KJFK

Flight Track Log - Related Links

Times and Time Zones

All times are in EDT time to prevent confusion due to time zone crossing. See the DAL268 flight status page for this flight to view local times or setup timezone preferences in your user account.

Time Position Orientation Groundspeed Altitude Reporting Facility
EDT Latitude Longitude Course Direction KTS MPH feet Rate Location/Type
02:29PM 37.6358 -122.3590 30° Northeast 168 193 900  Level FlightAware ADS-B
02:29PM 37.6387 -122.3550 48° Northeast 169 194 1,200 2,700 Climbing FlightAware ADS-B
02:29PM 37.6413 -122.3510 51° Northeast 171 197 1,400 1,860 Climbing FlightAware ADS-B
02:29PM 37.6475 -122.3420 49° Northeast 184 212 1,700 1,680 Climbing FlightAware ADS-B
02:29PM 37.6587 -122.3270 47° Northeast 211 243 2,200 1,620 Climbing FlightAware ADS-B
02:30PM 37.6693 -122.3120 48° Northeast 231 266 2,600 1,740 Climbing FlightAware ADS-B
02:30PM 37.6808 -122.2960 48° Northeast 249 287 3,100 2,220 Climbing FlightAware ADS-B
02:30PM 37.6946 -122.2770 47° Northeast 263 303 3,800 2,580 Climbing FlightAware ADS-B
02:31PM 37.7074 -122.2600 46° Northeast 273 314 4,500 3,120 Climbing FlightAware ADS-B
02:31PM 37.7283 -122.2330 46° Northeast 276 318 5,800 3,180 Climbing FlightAware ADS-B
02:31PM 37.7443 -122.2160 40° Northeast 285 328 6,600 2,880 Climbing FlightAware ADS-B
02:31PM 37.7644 -122.1980 35° Northeast 288 331 7,500 3,000 Climbing FlightAware ADS-B
02:32PM 37.7812 -122.1820 37° Northeast 294 338 8,300 3,000 Climbing FlightAware ADS-B
02:32PM 37.8014 -122.1630 37° Northeast 294 338 9,200 3,000 Climbing FlightAware ADS-B
02:33PM 37.8356 -122.1310 36° Northeast 301 346 10,800 2,820 Climbing FlightAware ADS-B
02:33PM 37.8718 -122.0970 37° Northeast 310 357 12,200 2,520 Climbing FlightAware ADS-B
02:34PM 37.9105 -122.0610 36° Northeast 326 375 13,500 2,340 Climbing FlightAware ADS-B
02:34PM 37.9482 -122.0250 37° Northeast 339 390 14,700 1,920 Climbing FlightAware ADS-B
02:35PM 37.9921 -121.9830 37° Northeast 363 418 15,600 1,740 Climbing FlightAware ADS-B
02:35PM 38.0344 -121.9430 37° Northeast 376 433 16,600 1,560 Climbing FlightAware ADS-B
02:36PM 38.0929 -121.8870 37° Northeast 404 465 17,500 1,620 Climbing FlightAware ADS-B
02:36PM 38.1410 -121.8410 37° Northeast 413 475 18,600 1,980 Climbing FlightAware
02:37PM 38.1940 -121.7910 37° Northeast 422 486 19,700 1,920 Climbing FlightAware
02:37PM 38.2250 -121.7590 39° Northeast 423 487 20,400 2,100 Climbing FlightAware
02:38PM 38.2680 -121.6900 52° Northeast 427 491 21,700 1,980 Climbing FlightAware
02:39PM 38.3120 -121.6200 51° Northeast 434 499 22,800 1,860 Climbing FlightAware
02:39PM 38.3580 -121.5520 49° Northeast 436 502 23,900 1,860 Climbing FlightAware
02:40PM 38.4050 -121.4840 49° Northeast 439 505 25,000 1,620 Climbing FlightAware
02:40PM 38.4510 -121.4090 52° Northeast 444 511 25,900 1,500 Climbing FlightAware
02:41PM 38.4940 -121.3380 52° Northeast 448 516 26,800 1,500 Climbing FlightAware
02:41PM 38.5360 -121.2700 52° Northeast 452 520 27,600 1,260 Climbing FlightAware
02:42PM 38.5850 -121.1920 51° Northeast 457 526 28,300 1,140 Climbing FlightAware
02:43PM 38.6300 -121.1180 52° Northeast 465 535 29,000 1,200 Climbing FlightAware
02:43PM 38.6740 -121.0450 52° Northeast 468 539 29,700 1,380 Climbing FlightAware
02:44PM 38.7140 -120.9800 52° Northeast 466 536 30,500 1,620 Climbing FlightAware
02:44PM 38.7630 -120.9000 52° Northeast 463 533 31,500 1,500 Climbing FlightAware
02:45PM 38.8040 -120.8330 52° Northeast 461 531 32,200 1,320 Climbing FlightAware
02:45PM 38.8520 -120.7540 52° Northeast 461 531 33,000 1,320 Climbing FlightAware
02:46PM 38.8698 -120.7240 53° Northeast 461 531 33,300 1,320 Climbing FlightAware ADS-B (KAHC)
02:46PM 38.9150 -120.6491 52° Northeast 459 528 34,100 1,320 Climbing FlightAware ADS-B (KAHC)
02:47PM 38.9552 -120.5823 52° Northeast 457 526 34,800 1,080 Climbing FlightAware ADS-B (KAHC)
02:48PM 39.0187 -120.4769 52° Northeast 461 531 35,600 900 Climbing FlightAware ADS-B (KAHC)
02:48PM 39.0592 -120.4092 52° Northeast 461 531 36,000 960 Climbing FlightAware ADS-B (KAHC)
02:49PM 39.1135 -120.3184 52° Northeast 459 528 36,800 780 Climbing FlightAware ADS-B (KAHC)
02:49PM 39.1514 -120.2549 52° Northeast 461 531 37,000 180 Climbing FlightAware ADS-B (KAHC)
02:50PM 39.1908 -120.1887 52° Northeast 459 528 37,000  Level FlightAware ADS-B (KAHC)
02:50PM 39.2297 -120.1234 53° Northeast 459 528 37,000  Level FlightAware ADS-B (KAHC)
02:51PM 39.2686 -120.0577 53° Northeast 460 529 37,000  Level FlightAware ADS-B (KAHC)
02:51PM 39.3140 -119.9809 53° Northeast 460 529 37,000  Level FlightAware ADS-B (KAHC)
02:52PM 39.3527 -119.9154 53° Northeast 460 529 37,000  Level FlightAware ADS-B (KAHC)
02:53PM 39.4054 -119.8259 53° Northeast 460 529 37,000  Level FlightAware ADS-B (KAHC)
02:53PM 39.4460 -119.7567 53° Northeast 460 529 37,000  Level FlightAware ADS-B (KAHC)
02:54PM 39.4988 -119.6666 53° Northeast 461 531 37,000  Level FlightAware ADS-B (KAHC)
02:54PM 39.5381 -119.5994 53° Northeast 461 531 37,000  Level FlightAware ADS-B (KAHC)
02:55PM 39.5800 -119.5280 53° Northeast 460 529 37,000  Level FlightAware
02:55PM 39.5968 -119.4986 53° Northeast 461 531 37,000  Level FlightAware ADS-B (KAHC)
02:56PM 39.6357 -119.4317 53° Northeast 460 529 37,000  Level FlightAware ADS-B (KAHC)
02:56PM 39.6730 -119.3670 53° Northeast 460 529 37,000  Level FlightAware
02:56PM 39.6891 -119.3398 53° Northeast 460 529 37,000  Level FlightAware ADS-B (KAHC)
02:57PM 39.7278 -119.2728 53° Northeast 459 528 37,000  Level FlightAware ADS-B (KAHC)
02:57PM 39.7797 -119.1809 54° Northeast 459 528 37,000  Level FlightAware ADS-B (KAHC)
02:58PM 39.8107 -119.1091 61° Northeast 457 526 37,000  Level FlightAware ADS-B (KAHC)
02:59PM 39.8457 -119.0024 67° East 457 526 37,000  Level FlightAware ADS-B (KAHC)
02:59PM 39.8704 -118.9258 67° East 457 526 37,000  Level FlightAware ADS-B (KAHC)
03:00PM 39.9075 -118.8091 67° East 457 526 37,000  Level FlightAware ADS-B (KAHC)
03:00PM 39.9303 -118.7367 68° East 457 526 37,000  Level FlightAware ADS-B (KAHC)
03:01PM 39.9651 -118.6253 68° East 458 527 37,000  Level FlightAware ADS-B (KAHC)
03:02PM 39.9887 -118.5498 68° East 459 528 37,000  Level FlightAware ADS-B (KAHC)
03:02PM 40.0118 -118.4757 68° East 458 527 37,000  Level FlightAware ADS-B (KAHC)
03:03PM 40.0369 -118.3969 67° East 459 528 37,000  Level FlightAware ADS-B (KAHC)
03:03PM 40.0770 -118.2700 68° East 460 529 37,000  Level FlightAware
03:04PM 40.1080 -118.1730 67° East 461 531 37,000  Level FlightAware
03:05PM 40.1350 -118.0840 68° East 462 532 37,000  Level FlightAware
03:05PM 40.1620 -118.0000 67° East 462 532 37,000  Level FlightAware
03:06PM 40.1884 -117.9147 68° East 463 533 37,000  Level FlightAware ADS-B (KAHC)
03:06PM 40.2190 -117.8160 68° East 462 532 37,000  Level FlightAware
03:07PM 40.2430 -117.7400 68° East 462 532 37,000  Level FlightAware
03:08PM 40.2690 -117.6620 66° East 462 532 37,000  Level FlightAware
03:08PM 40.2940 -117.5830 67° East 462 532 37,000  Level FlightAware
03:09PM 40.3210 -117.5010 67° East 462 532 37,000  Level FlightAware
03:09PM 40.3460 -117.4220 67° East 462 532 37,000  Level FlightAware
03:10PM 40.3730 -117.3410 66° East 462 532 37,000  Level FlightAware
03:11PM 40.3980 -117.2620 67° East 462 532 37,000  Level FlightAware
03:11PM 40.4240 -117.1830 67° East 462 532 37,000  Level FlightAware
03:12PM 40.4490 -117.1040 67° East 462 532 37,000  Level FlightAware
03:12PM 40.4660 -117.0510 67° East 462 532 37,000  Level FlightAware
03:13PM 40.5000 -116.9460 67° East 462 532 37,000  Level FlightAware
03:14PM 40.5260 -116.8670 67° East 462 532 37,000  Level FlightAware
03:14PM 40.5520 -116.7850 67° East 462 532 37,000  Level FlightAware
03:15PM 40.5780 -116.7060 67° East 462 532 37,000  Level FlightAware
03:15PM 40.6030 -116.6270 67° East 462 532 37,000  Level FlightAware
03:16PM 40.6290 -116.5470 67° East 462 532 37,000  Level FlightAware
03:17PM 40.7156 -116.1650 73° East 468 539 37,000  Level FlightAware ADS-B
03:17PM 40.7393 -116.0840 69° East 469 540 37,000  Level FlightAware ADS-B
03:18PM 40.7630 -116.0020 69° East 469 540 37,000  Level FlightAware ADS-B
03:18PM 40.7865 -115.9210 69° East 470 541 37,000  Level FlightAware ADS-B
03:19PM 40.8102 -115.8380 69° East 469 540 37,000  Level FlightAware ADS-B
03:19PM 40.8346 -115.7530 69° East 469 540 37,000  Level FlightAware ADS-B
03:20PM 40.8585 -115.6700 69° East 470 541 37,000  Level FlightAware ADS-B
03:21PM 40.8860 -115.5735 69° East 471 542 37,000  Level FlightAware ADS-B
03:21PM 40.9095 -115.4910 69° East 472 543 37,000  Level FlightAware ADS-B
03:21PM 40.9095 -115.4907 80° East 472 543 37,000  Level FlightAware ADS-B
03:22PM 40.9333 -115.4070 69° East 472 543 37,000  Level FlightAware ADS-B
03:22PM 40.9333 -115.4068 94° East 473 544 37,000  Level FlightAware ADS-B
03:22PM 40.9567 -115.3240 69° East 473 544 37,000  Level FlightAware ADS-B
03:22PM 40.9574 -115.3212 70° East 473 544 37,000  Level FlightAware ADS-B
03:23PM 40.9796 -115.2430 69° East 473 544 37,000  Level FlightAware ADS-B
03:23PM 41.0027 -115.1600 70° East 473 544 37,000  Level FlightAware ADS-B
03:24PM 41.0258 -115.0780 70° East 474 545 37,000  Level FlightAware ADS-B
03:24PM 41.0487 -114.9950 70° East 474 545 37,000  Level FlightAware ADS-B
03:25PM 41.0912 -114.8430 70° East 475 547 37,000  Level FlightAware ADS-B
03:26PM 41.1138 -114.7610 70° East 475 547 37,000  Level FlightAware ADS-B
03:26PM 41.1373 -114.6750 70° East 475 547 37,000  Level FlightAware ADS-B
03:27PM 41.1601 -114.5920 70° East 475 547 37,000  Level FlightAware ADS-B
03:27PM 41.1828 -114.5090 70° East 475 547 37,000  Level FlightAware ADS-B
03:28PM 41.2054 -114.4260 70° East 476 548 37,000  Level FlightAware ADS-B
03:28PM 41.2279 -114.3430 70° East 477 549 37,000  Level FlightAware ADS-B
03:29PM 41.2529 -114.2510 70° East 477 549 37,000  Level FlightAware ADS-B
03:30PM 41.3008 -114.0730 70° East 478 550 37,000  Level FlightAware ADS-B
03:30PM 41.3231 -113.9900 70° East 479 551 37,000  Level FlightAware ADS-B
03:30PM 41.3315 -113.9586 70° East 480 552 37,000  Level FlightAware ADS-B
03:31PM 41.3454 -113.9060 71° East 479 551 37,000  Level FlightAware ADS-B
03:31PM 41.3551 -113.8679 71° East 481 554 37,000  Level FlightAware ADS-B
03:31PM 41.3621 -113.8360 74° East 481 554 37,000  Level FlightAware ADS-B
03:31PM 41.3720 -113.7805 77° East 484 557 37,000  Level FlightAware ADS-B
03:32PM 41.3745 -113.7630 79° East 484 557 37,000  Level FlightAware ADS-B
03:32PM 41.3840 -113.6858 81° East 485 558 37,000  Level FlightAware ADS-B
03:32PM 41.3857 -113.6720 81° East 485 558 37,000  Level FlightAware ADS-B
03:33PM 41.3963 -113.5830 81° East 485 558 37,000  Level FlightAware ADS-B
03:33PM 41.4019 -113.5361 81° East 485 558 37,000  Level FlightAware ADS-B
03:33PM 41.4074 -113.4920 81° East 485 558 37,000  Level FlightAware ADS-B
03:33PM 41.4133 -113.4447 81° East 485 558 37,000  Level FlightAware ADS-B
03:34PM 41.4186 -113.4020 81° East 485 558 37,000  Level FlightAware ADS-B
03:34PM 41.4257 -113.3466 80° East 485 558 37,000  Level FlightAware ADS-B
03:34PM 41.4300 -113.3130 80° East 485 558 37,000  Level FlightAware ADS-B
03:34PM 41.4374 -113.2545 80° East 484 557 37,000  Level FlightAware ADS-B
03:35PM 41.4412 -113.2240 80° East 484 557 37,000  Level FlightAware ADS-B
03:35PM 41.4487 -113.1646 80° East 483 556 37,000  Level FlightAware ADS-B
03:35PM 41.4528 -113.1320 81° East 483 556 37,000  Level FlightAware ADS-B
03:35PM 41.4601 -113.0734 81° East 483 556 37,000  Level FlightAware ADS-B
03:36PM 41.4638 -113.0440 81° East 481 554 37,000  Level FlightAware ADS-B
03:36PM 41.4711 -112.9852 81° East 481 554 37,000  Level FlightAware ADS-B
03:36PM 41.4747 -112.9550 81° East 481 554 37,000  Level FlightAware ADS-B
03:37PM 41.4820 -112.8959 81° East 480 552 37,000  Level FlightAware ADS-B
03:37PM 41.4889 -112.8390 81° East 480 552 37,000  Level FlightAware ADS-B
03:37PM 41.4944 -112.7939 81° East 478 550 37,000  Level FlightAware ADS-B
03:37PM 41.5022 -112.7280 81° East 477 549 37,000  Level FlightAware ADS-B
03:38PM 41.5074 -112.6856 81° East 475 547 37,000  Level FlightAware ADS-B
03:38PM 41.5126 -112.6410 81° East 475 547 37,000  Level FlightAware ADS-B
03:38PM 41.5185 -112.5923 81° East 473 544 37,000  Level FlightAware ADS-B
03:38PM 41.5234 -112.5510 81° East 473 544 37,000  Level FlightAware ADS-B
03:39PM 41.5290 -112.5033 81° East 471 542 37,000  Level FlightAware ADS-B
03:39PM 41.5336 -112.4640 81° East 470 541 37,000  Level FlightAware ADS-B
03:39PM 41.5390 -112.4140 82° East 470 541 37,000  Level FlightAware ADS-B
03:39PM 41.5428 -112.3780 82° East 469 540 37,000  Level FlightAware ADS-B
03:40PM 41.5480 -112.3273 82° East 468 539 37,000  Level FlightAware ADS-B
03:40PM 41.5521 -112.2880 82° East 468 539 37,000  Level FlightAware ADS-B
03:40PM 41.5567 -112.2425 82° East 468 539 37,000  Level FlightAware ADS-B
03:41PM 41.5610 -112.2010 82° East 467 537 37,000  Level FlightAware ADS-B
03:41PM 41.5658 -112.1553 82° East 467 537 37,000  Level FlightAware ADS-B
03:41PM 41.5704 -112.1110 82° East 467 537 37,000  Level FlightAware ADS-B
03:41PM 41.5756 -112.0607 82° East 467 537 37,000  Level FlightAware ADS-B
03:42PM 41.5795 -112.0230 82° East 467 537 37,000  Level FlightAware ADS-B
03:42PM 41.5843 -111.9763 82° East 467 537 37,000  Level FlightAware ADS-B
03:42PM 41.5884 -111.9360 82° East 467 537 37,000  Level FlightAware ADS-B
03:42PM 41.5946 -111.8765 82° East 468 539 37,000  Level FlightAware ADS-B
03:43PM 41.5973 -111.8500 82° East 468 539 37,000  Level FlightAware ADS-B
03:43PM 41.6038 -111.7857 82° East 468 539 37,000  Level FlightAware ADS-B
03:43PM 41.6068 -111.7550 82° East 468 539 37,000  Level FlightAware ADS-B
03:44PM 41.6157 -111.6670 82° East 470 541 37,000  Level FlightAware ADS-B
03:44PM 41.6245 -111.5780 82° East 471 542 37,000  Level FlightAware ADS-B
03:45PM 41.6331 -111.4910 82° East 472 543 37,000  Level FlightAware ADS-B
03:45PM 41.6416 -111.4030 83° East 473 544 37,000  Level FlightAware ADS-B
03:45PM 41.6443 -111.3754 83° East 474 545 37,000  Level FlightAware ADS-B
03:46PM 41.6503 -111.3130 83° East 475 547 37,000  Level FlightAware ADS-B
03:46PM 41.6587 -111.2260 83° East 476 548 37,000  Level FlightAware ADS-B
03:47PM 41.6671 -111.1370 83° East 477 549 37,000  Level FlightAware ADS-B
03:47PM 41.6759 -111.0440 83° East 477 549 37,000  Level FlightAware ADS-B
03:48PM 41.6842 -110.9560 83° East 477 549 37,000  Level FlightAware ADS-B
03:48PM 41.6930 -110.8610 83° East 477 549 37,000  Level FlightAware ADS-B
03:49PM 41.7031 -110.7500 83° East 475 547 37,000  Level FlightAware ADS-B
03:50PM 41.7120 -110.6840 80° East 476 548 37,000  Level FlightAware
03:50PM 41.7220 -110.5940 82° East 476 548 37,000  Level FlightAware
03:51PM 41.7280 -110.5350 82° East 476 548 37,000  Level FlightAware
03:51PM 41.7370 -110.4450 82° East 476 548 37,000  Level FlightAware
03:52PM 41.7470 -110.3560 81° East 476 548 37,000  Level FlightAware
03:52PM 41.7560 -110.2660 82° East 476 548 37,000  Level FlightAware
03:53PM 41.7660 -110.1740 82° East 476 548 37,000  Level FlightAware
03:54PM 41.7750 -110.0850 82° East 476 548 37,000  Level FlightAware
03:54PM 41.7840 -109.9950 82° East 476 548 37,000  Level FlightAware
03:55PM 41.7910 -109.9330 81° East 476 548 37,000  Level FlightAware
03:55PM 41.8010 -109.8410 82° East 476 548 37,000  Level FlightAware
03:56PM 41.8100 -109.7520 82° East 476 548 37,000  Level FlightAware
03:56PM 41.8130 -109.4670 89° East 473 544 37,000  Level FlightAware
03:57PM 41.8210 -109.3610 84° East 473 544 37,000  Level FlightAware
03:58PM 41.8300 -109.2510 84° East 474 545 37,000  Level FlightAware
03:58PM 41.8380 -109.1510 84° East 474 545 37,000  Level FlightAware
03:59PM 41.8460 -109.0480 84° East 474 545 37,000  Level FlightAware
03:59PM 41.8560 -108.9060 85° East 476 548 37,000  Level FlightAware
04:00PM 41.8640 -108.8000 84° East 477 549 37,000  Level FlightAware
04:01PM 41.8720 -108.6940 84° East 477 549 37,000  Level FlightAware
04:01PM 41.8810 -108.5770 84° East 478 550 37,000  Level FlightAware
04:02PM 41.8890 -108.4650 84° East 479 551 37,000  Level FlightAware
04:03PM 41.8960 -108.3560 85° East 480 552 37,000  Level FlightAware
04:03PM 41.9020 -108.2690 85° East 481 554 37,000  Level FlightAware
04:04PM 41.9090 -108.1730 84° East 481 554 37,000  Level FlightAware
04:04PM 41.9150 -108.0880 85° East 482 555 37,000  Level FlightAware
04:05PM 41.9220 -107.9840 85° East 481 554 37,000  Level FlightAware
04:05PM 41.9290 -107.8900 84° East 481 554 37,000  Level FlightAware
04:06PM 41.9330 -107.8300 85° East 481 554 37,000  Level FlightAware
04:06PM 41.9430 -107.7080 84° East 481 554 37,000  Level FlightAware
04:07PM 41.9500 -107.6170 84° East 481 554 37,000  Level FlightAware
04:08PM 41.9570 -107.5240 84° East 481 554 37,000  Level FlightAware
04:08PM 41.9640 -107.4320 84° East 481 554 37,000  Level FlightAware
04:09PM 41.9710 -107.3460 84° East 481 554 37,000  Level FlightAware
04:09PM 41.9780 -107.2580 84° East 481 554 37,000  Level FlightAware
04:10PM 41.9850 -107.1670 84° East 481 554 37,000  Level FlightAware
04:11PM 41.9930 -107.0600 84° East 481 554 37,000  Level FlightAware
04:11PM 42.0000 -106.9720 84° East 481 554 37,000  Level FlightAware
04:12PM 42.0070 -106.8810 84° East 481 554 37,000  Level FlightAware
04:12PM 42.0050 -106.6070 90° East 484 557 37,000  Level FlightAware
04:13PM 42.0120 -106.5070 85° East 484 557 37,000  Level FlightAware
04:14PM 42.0170 -106.3910 87° East 486 559 37,000  Level FlightAware
04:14PM 42.0220 -106.2800 86° East 487 560 37,000  Level FlightAware
04:15PM 42.0280 -106.1730 86° East 486 559 37,000  Level FlightAware
04:15PM 42.0330 -106.0700 86° East 486 559 37,000  Level FlightAware
04:16PM 42.0390 -105.9570 86° East 486 559 37,000  Level FlightAware
04:17PM 42.0430 -105.8630 87° East 486 559 37,000  Level FlightAware
04:17PM 42.0490 -105.7490 86° East 486 559 37,000  Level FlightAware
04:18PM 42.0520 -105.6870 86° East 486 559 37,000  Level FlightAware
04:18PM 42.0590 -105.5640 86° East 486 559 37,000  Level FlightAware
04:19PM 42.0640 -105.4040 88° East 487 560 37,000  Level FlightAware
04:20PM 42.0690 -105.3050 86° East 487 560 37,000  Level FlightAware
04:20PM 42.0740 -105.1900 87° East 488 562 37,000  Level FlightAware
04:21PM 42.0840 -105.0510 84° East 488 562 37,000  Level FlightAware
04:22PM 42.0960 -104.9260 83° East 489 563 37,000  Level FlightAware
04:22PM 42.1070 -104.7960 83° East 491 565 37,000  Level FlightAware
04:23PM 42.1210 -104.6320 83° East 491 565 37,000  Level FlightAware
04:24PM 42.1270 -104.5650 83° East 490 564 37,000  Level FlightAware
04:25PM 42.1390 -104.4260 83° East 490 564 37,000  Level FlightAware
04:25PM 42.1420 -104.3950 83° East 490 564 37,000  Level FlightAware
04:25PM 42.1450 -104.3640 83° East 490 564 37,000  Level FlightAware
04:25PM 42.1480 -104.3330 83° East 490 564 37,000  Level FlightAware
04:25PM 42.1510 -104.3020 83° East 490 564 37,000  Level FlightAware
04:26PM 42.1560 -104.2400 84° East 490 564 37,000  Level FlightAware
04:26PM 42.1590 -104.2090 83° East 490 564 37,000  Level FlightAware
04:26PM 42.1620 -104.1780 83° East 490 564 37,000  Level FlightAware
04:26PM 42.1650 -104.1470 83° East 490 564 37,000  Level FlightAware
04:27PM 42.1680 -104.1160 83° East 490 564 37,000  Level FlightAware
04:27PM 42.1700 -104.0850 85° East 490 564 37,000  Level FlightAware
04:27PM 42.1730 -104.0540 83° East 490 564 37,000  Level FlightAware
04:27PM 42.1760 -104.0230 83° East 490 564 37,000  Level FlightAware
04:27PM 42.1790 -103.9920 83° East 490 564 37,000  Level FlightAware
04:28PM 42.1820 -103.9610 83° East 490 564 37,000  Level FlightAware
04:28PM 42.1840 -103.9350 84° East 490 564 37,000  Level FlightAware
04:28PM 42.1870 -103.9050 82° East 490 564 37,000  Level FlightAware
04:28PM 42.1900 -103.8740 83° East 490 564 37,000  Level FlightAware
04:28PM 42.1920 -103.8430 85° East 490 564 37,000  Level FlightAware
04:29PM 42.1950 -103.8120 83° East 490 564 37,000  Level FlightAware
04:29PM 42.1980 -103.7780 83° East 490 564 37,000  Level FlightAware
04:29PM 42.2010 -103.7470 83° East 490 564 37,000  Level FlightAware
04:29PM 42.2040 -103.7130 83° East 490 564 37,000  Level FlightAware
04:29PM 42.2070 -103.6820 83° East 490 564 37,000  Level FlightAware
04:30PM 42.2100 -103.6520 82° East 490 564 37,000  Level FlightAware
04:30PM 42.2130 -103.6210 83° East 490 564 37,000  Level FlightAware
04:30PM 42.2150 -103.5900 85° East 490 564 37,000  Level FlightAware
04:30PM 42.2180 -103.5590 83° East 490 564 37,000  Level FlightAware
04:30PM 42.2210 -103.5280 83° East 490 564 37,000  Level FlightAware
04:31PM 42.2240 -103.4970 83° East 490 564 37,000  Level FlightAware
04:31PM 42.2270 -103.4660 83° East 490 564 37,000  Level FlightAware
04:31PM 42.2290 -103.4350 85° East 490 564 37,000  Level FlightAware
04:31PM 42.2320 -103.4010 83° East 490 564 37,000  Level FlightAware
04:31PM 42.2350 -103.3700 83° East 490 564 37,000  Level FlightAware
04:32PM 42.2380 -103.3390 83° East 490 564 37,000  Level FlightAware
04:32PM 42.2410 -103.3080 83° East 490 564 37,000  Level FlightAware
04:32PM 42.2440 -103.2770 83° East 490 564 37,000  Level FlightAware
04:32PM 42.2470 -103.2460 83° East 490 564 37,000  Level FlightAware
04:32PM 42.2490 -103.2150 85° East 490 564 37,000  Level FlightAware
04:33PM 42.2520 -103.1840 83° East 490 564 37,000  Level FlightAware
04:33PM 42.2550 -103.1580 81° East 490 564 37,000  Level FlightAware
04:33PM 42.2570 -103.1270 85° East 490 564 37,000  Level FlightAware
04:33PM 42.2600 -103.0960 83° East 490 564 37,000  Level FlightAware
04:33PM 42.2630 -103.0650 83° East 490 564 37,000  Level FlightAware
04:34PM 42.2660 -103.0340 83° East 490 564 37,000  Level FlightAware
04:35PM 42.2830 -102.5130 87° East 491 565 37,000  Level FlightAware
04:35PM 42.2850 -102.4820 85° East 491 565 37,000  Level FlightAware
04:36PM 42.2900 -102.4200 84° East 491 565 37,000  Level FlightAware
04:36PM 42.2970 -102.3240 84° East 491 565 37,000  Level FlightAware
04:37PM 42.3100 -102.1650 84° East 491 565 37,000  Level FlightAware
04:42PM 42.3630 -101.4800 84° East 491 565 37,000  Level FlightAware
04:43PM 42.3790 -101.2670 84° East 491 565 37,000  Level FlightAware
04:44PM 42.3797 -100.8511 84° East 501 577 37,000  Level Minneapolis Center
04:45PM 42.3908 -100.6194 86° East 507 583 37,000  Level Denver Center
04:51PM 42.4420 -99.4880 86° East 509 586 37,000  Level FlightAware
04:52PM 42.4492 -99.2831 86° East 508 585 37,000  Level Minneapolis Center
04:53PM 42.4572 -99.0897 87° East 510 587 37,000  Level Minneapolis Center
04:54PM 42.4642 -98.8986 87° East 508 585 37,000  Level Minneapolis Center
05:01PM 42.5180 -97.6770 87° East 518 596 37,000  Level FlightAware
05:04PM 42.5450 -96.9950 87° East 518 596 37,000  Level FlightAware
05:05PM 42.5492 -96.8875 87° East 517 595 37,000  Level Minneapolis Center
05:06PM 42.5558 -96.6931 87° East 516 594 37,000  Level Minneapolis Center
05:11PM 42.5870 -95.5900 87° East 507 583 37,000  Level FlightAware
05:15PM 42.6010 -94.9360 88° East 509 586 37,000  Level FlightAware
05:16PM 42.6055 -94.6840 89° East 510 587 37,000  Level FlightAware ADS-B
05:17PM 42.6070 -94.5900 89° East 509 586 37,000  Level FlightAware
05:17PM 42.6082 -94.5061 89° East 510 587 37,000  Level FlightAware ADS-B
05:18PM 42.6100 -94.3780 89° East 510 587 37,000  Level FlightAware
05:18PM 42.6120 -94.2580 89° East 512 589 37,000  Level FlightAware
05:19PM 42.6127 -94.1380 90° East 512 589 37,000  Level FlightAware ADS-B
05:20PM 42.6140 -94.0220 89° East 513 590 37,000  Level FlightAware
05:20PM 42.6140 -93.9060 90° East 515 593 37,000  Level FlightAware
05:21PM 42.6150 -93.8210 89° East 516 594 37,000  Level FlightAware
05:21PM 42.6160 -93.6600 89° East 518 596 37,000  Level FlightAware
05:22PM 42.6160 -93.5450 90° East 519 597 37,000  Level FlightAware
05:23PM 42.6160 -93.4400 90° East 520 598 37,000  Level FlightAware
05:23PM 42.6170 -93.3210 89° East 521 600 37,000  Level FlightAware
05:24PM 42.6170 -93.1860 90° East 522 601 37,000  Level FlightAware
05:24PM 42.6170 -93.0810 90° East 522 601 37,000 60 Level FlightAware
05:25PM 42.6160 -92.9170 90° East 523 602 37,100 360 Climbing FlightAware
05:26PM 42.6160 -92.7860 90° East 524 603 37,600 780 Climbing FlightAware
05:26PM 42.6158 -92.7039 90° East 524 603 38,000 720 Climbing FlightAware ADS-B
05:27PM 42.6150 -92.5450 90° East 526 605 38,500 600 Climbing FlightAware
05:27PM 42.6147 -92.4901 90° East 528 608 38,700 480 Climbing FlightAware ADS-B
05:28PM 42.6139 -92.3537 90° East 531 611 39,000 240 Climbing FlightAware ADS-B
05:29PM 42.6130 -92.2490 91° East 532 612 39,000  Level FlightAware
05:29PM 42.6126 -92.1946 91° East 533 613 39,000  Level FlightAware ADS-B
05:29PM 42.6116 -92.0883 91° East 533 613 39,000  Level FlightAware ADS-B
05:30PM 42.6103 -91.9557 91° East 533 613 39,000  Level FlightAware ADS-B
05:31PM 42.6088 -91.8243 91° East 533 613 39,000  Level FlightAware ADS-B
05:32PM 42.6062 -91.6167 91° East 533 613 39,000  Level FlightAware ADS-B
05:32PM 42.6044 -91.4879 91° East 534 615 39,000  Level FlightAware ADS-B
05:33PM 42.6024 -91.3559 91° East 534 615 39,000  Level FlightAware ADS-B
05:34PM 42.6004 -91.2356 91° East 533 613 39,000  Level FlightAware ADS-B
05:34PM 42.5978 -91.0883 91° East 533 613 39,000  Level FlightAware ADS-B
05:35PM 42.5958 -90.9834 91° East 531 611 39,000  Level FlightAware ADS-B
05:36PM 42.5930 -90.8490 92° East 530 610 39,000  Level FlightAware
05:36PM 42.5925 -90.8145 91° East 529 609 39,000  Level FlightAware ADS-B
05:36PM 42.5904 -90.7156 92° East 529 609 39,000  Level FlightAware ADS-B
05:37PM 42.5879 -90.6019 92° East 528 608 39,000  Level FlightAware ADS-B
05:38PM 42.5820 -90.3640 92° East 527 606 39,000  Level FlightAware
05:39PM 42.5770 -90.1600 92° East 527 606 39,000  Level FlightAware
05:40PM 42.5720 -89.9700 92° East 527 606 39,000  Level FlightAware
05:40PM 42.5700 -89.8830 92° East 527 606 39,000  Level FlightAware
05:41PM 42.5640 -89.6820 92° East 528 608 39,000  Level FlightAware
05:42PM 42.5590 -89.5250 92° East 528 608 39,000  Level FlightAware
05:43PM 42.5530 -89.3460 93° East 529 609 39,000  Level FlightAware
05:44PM 42.5500 -89.2620 93° East 529 609 39,000  Level FlightAware
05:44PM 42.5460 -89.1540 93° East 529 609 39,000  Level FlightAware
05:45PM 42.5430 -89.0540 92° East 530 610 39,000  Level FlightAware
05:46PM 42.5340 -88.8080 93° East 531 611 39,000  Level FlightAware
05:46PM 42.5300 -88.7140 93° East 532 612 39,000  Level FlightAware
05:47PM 42.5260 -88.6020 93° East 532 612 39,000  Level FlightAware
05:48PM 42.5180 -88.4130 93° East 533 613 39,000  Level FlightAware
05:48PM 42.5140 -88.3130 93° East 533 613 39,000  Level FlightAware
05:49PM 42.5090 -88.1990 93° East 533 613 39,000  Level FlightAware
05:50PM 42.5030 -88.0760 94° East 534 615 39,000  Level FlightAware
05:50PM 42.5010 -87.9760 92° East 535 616 39,000  Level FlightAware
05:51PM 42.5000 -87.7780 90° East 534 615 39,000  Level FlightAware
05:52PM 42.4990 -87.6580 91° East 533 613 39,000  Level FlightAware
05:52PM 42.4990 -87.5620 90° East 533 613 39,000  Level FlightAware
05:53PM 42.4990 -87.4390 90° East 532 612 39,000  Level FlightAware
05:53PM 42.4980 -87.3160 91° East 532 612 39,000  Level FlightAware
05:54PM 42.4970 -87.1170 90° East 532 612 39,000  Level FlightAware
05:55PM 42.4960 -86.9790 91° East 532 612 39,000  Level FlightAware
05:56PM 42.4940 -86.8000 91° East 531 611 39,000  Level FlightAware
05:57PM 42.4920 -86.6100 91° East 531 611 39,000  Level FlightAware
05:58PM 42.4890 -86.4170 91° East 531 611 39,000  Level FlightAware
05:59PM 42.4880 -86.2890 91° East 531 611 39,000  Level FlightAware
05:59PM 42.4860 -86.1530 91° East 530 610 39,000  Level FlightAware
06:00PM 42.4840 -86.0440 91° East 530 610 39,000  Level FlightAware
06:00PM 42.4820 -85.9100 91° East 530 610 39,000  Level FlightAware
06:01PM 42.4800 -85.8120 92° East 529 609 39,000  Level FlightAware
06:02PM 42.4750 -85.5950 92° East 528 608 39,000  Level FlightAware
06:03PM 42.4730 -85.4790 91° East 527 606 39,000  Level FlightAware
06:03PM 42.4690 -85.3190 92° East 526 605 39,000  Level FlightAware
06:04PM 42.4650 -85.1390 92° East 525 604 39,000  Level FlightAware
06:05PM 42.4600 -84.9380 92° East 524 603 39,000  Level FlightAware
06:06PM 42.4580 -84.8580 92° East 523 602 39,000  Level FlightAware
06:06PM 42.4540 -84.7270 92° East 522 601 39,000  Level FlightAware
06:07PM 42.4500 -84.5700 92° East 521 600 39,000  Level FlightAware
06:08PM 42.4460 -84.4340 92° East 520 598 39,000  Level FlightAware
06:09PM 42.4420 -84.3230 93° East 520 598 39,000  Level FlightAware
06:09PM 42.4380 -84.2100 93° East 520 598 39,000  Level FlightAware
06:10PM 42.4340 -84.0760 92° East 519 597 39,000  Level FlightAware
06:10PM 42.4290 -83.9400 93° East 520 598 39,000  Level FlightAware
06:12PM 42.4200 -83.6830 93° East 524 603 39,000  Level FlightAware
06:12PM 42.4160 -83.5860 93° East 525 604 39,000  Level FlightAware
06:13PM 42.4110 -83.4400 93° East 528 608 39,000  Level FlightAware
06:14PM 42.4060 -83.3230 93° East 530 610 39,000  Level FlightAware
06:14PM 42.4020 -83.2310 93° East 532 612 39,000  Level FlightAware
06:15PM 42.3980 -83.1370 93° East 534 615 39,000  Level FlightAware
06:15PM 42.3940 -83.0390 93° East 537 618 39,000  Level FlightAware
06:16PM 42.3840 -82.8120 93° East 544 626 39,000  Level FlightAware
06:17PM 42.3690 -82.6350 96° East 543 625 39,000  Level FlightAware
06:18PM 42.3560 -82.4850 97° East 544 626 39,000  Level FlightAware
06:18PM 42.3470 -82.3850 97° East 544 626 39,000  Level FlightAware
06:19PM 42.3330 -82.2220 97° East 543 625 39,000  Level FlightAware
06:20PM 42.3230 -82.1150 97° East 543 625 39,000  Level FlightAware
06:21PM 42.3060 -81.9200 97° East 543 625 39,000  Level FlightAware
06:21PM 42.2950 -81.7920 97° East 544 626 39,000  Level FlightAware
06:22PM 42.2850 -81.6910 98° East 544 626 39,000  Level FlightAware
06:23PM 42.2680 -81.5060 97° East 544 626 39,000  Level FlightAware
06:23PM 42.2600 -81.4160 97° East 544 626 39,000  Level FlightAware
06:24PM 42.2410 -81.2230 98° East 545 627 39,000  Level FlightAware
06:24PM 42.2320 -81.1280 97° East 545 627 39,000  Level FlightAware
06:25PM 42.2180 -80.9830 97° East 546 628 39,000  Level FlightAware
06:26PM 42.2010 -80.8160 98° East 546 628 39,000  Level FlightAware
06:27PM 42.1870 -80.6730 97° East 547 629 39,000  Level FlightAware
06:28PM 42.1680 -80.4900 98° East 546 628 39,000  Level FlightAware
06:28PM 42.1520 -80.3370 98° East 544 626 39,000  Level FlightAware
06:29PM 42.1340 -80.1650 98° East 542 624 39,000  Level FlightAware
06:30PM 42.1140 -79.9790 98° East 540 621 39,000  Level FlightAware
06:31PM 42.0940 -79.7920 98° East 540 621 39,000  Level FlightAware
06:32PM 42.0760 -79.6250 98° East 540 621 39,000  Level FlightAware
06:33PM 42.0620 -79.4970 98° East 541 623 39,000  Level FlightAware
06:33PM 42.0430 -79.3300 99° East 541 623 39,000  Level FlightAware
06:34PM 42.0310 -79.2280 99° East 542 624 39,000  Level FlightAware
06:35PM 42.0120 -79.0630 99° East 543 625 39,000  Level FlightAware
06:36PM 41.9850 -78.8710 101° East 538 619 39,000  Level FlightAware
06:36PM 41.9650 -78.7610 104° East 540 621 39,000  Level FlightAware
06:37PM 41.9300 -78.5610 103° East 543 625 39,000  Level FlightAware
06:38PM 41.9020 -78.3990 103° East 546 628 39,000  Level FlightAware
06:39PM 41.8770 -78.2570 103° East 549 632 39,000  Level FlightAware
06:40PM 41.8500 -78.1030 103° East 551 634 39,000  Level FlightAware
06:40PM 41.8230 -77.9500 103° East 553 636 39,000  Level FlightAware
06:41PM 41.8040 -77.8390 103° East 553 636 39,000  Level FlightAware
06:42PM 41.7730 -77.6690 104° East 554 638 39,000  Level FlightAware
06:42PM 41.7550 -77.5670 103° East 554 638 39,000  Level FlightAware
06:43PM 41.7370 -77.4700 104° East 553 636 39,000  Level FlightAware
06:44PM 41.7100 -77.3220 104° East 552 635 39,000  Level FlightAware
06:44PM 41.6830 -77.1790 104° East 549 632 39,000  Level FlightAware
06:45PM 41.6530 -77.0550 108° East 543 625 39,000  Level FlightAware
06:46PM 41.6160 -76.9170 110° East 540 621 39,000  Level FlightAware
06:46PM 41.5800 -76.7890 111° Southeast 537 618 39,000  Level FlightAware
06:47PM 41.5430 -76.6540 110° East 534 615 39,000 -300 Level FlightAware
06:48PM 41.4990 -76.4940 110° East 531 611 38,600 -1,560 Descending FlightAware
06:49PM 41.4500 -76.3190 110° East 541 623 36,200 -2,880 Descending FlightAware
06:50PM 41.4060 -76.1600 110° East 551 634 33,600 -3,180 Descending FlightAware
06:50PM 41.3750 -76.0510 111° Southeast 558 642 31,800 -2,940 Descending FlightAware
06:51PM 41.3350 -75.9080 110° East 558 642 29,700 -2,580 Descending FlightAware
06:52PM 41.2940 -75.7640 111° Southeast 539 620 27,900 -2,400 Descending FlightAware
06:53PM 41.2500 -75.6210 112° Southeast 512 589 26,100 -2,280 Descending FlightAware
06:53PM 41.2050 -75.4860 114° Southeast 490 564 24,300 -1,980 Descending FlightAware
06:54PM 41.1640 -75.3650 114° Southeast 477 549 23,100 -840 Descending FlightAware
06:55PM 41.1150 -75.2210 114° Southeast 476 548 23,000 -60 Descending FlightAware
06:56PM 41.0740 -75.0990 114° Southeast 476 548 23,000  Level FlightAware
06:57PM 41.0280 -74.9630 114° Southeast 478 550 23,000 -660 Level FlightAware
06:58PM 40.9910 -74.8230 109° East 493 567 22,000 -1,560 Descending FlightAware
06:58PM 40.9732 -74.6633 98° East 20,500 -1,860 Descending FlightAware ADS-B
06:59PM 40.9667 -74.6111 99° East 459 528 19,800 -1,500 Descending FlightAware ADS-B
06:59PM 40.9368 -74.4982 109° East 446 513 19,000 -480 Descending FlightAware ADS-B
07:00PM 40.8980 -74.3480 109° East 444 511 19,000  Level FlightAware
07:01PM 40.8700 -74.2290 107° East 430 495 19,000  Level FlightAware
07:02PM 40.8372 -74.0997 108° East 394 453 19,000  Level FlightAware ADS-B
07:02PM 40.8327 -74.0898 121° Southeast 384 442 19,000  Level FlightAware ADS-B
07:02PM 40.8276 -74.0804 126° Southeast 371 427 19,000  Level FlightAware ADS-B
07:02PM 40.8140 -74.0618 134° Southeast 351 404 19,000 -300 Level FlightAware ADS-B
07:03PM 40.8030 -74.0515 145° Southeast 340 391 18,900 -600 Descending FlightAware ADS-B
07:03PM 40.8022 -74.0508 147° Southeast 329 379 18,900  Level FlightAware ADS-B (KSNC)
07:03PM 40.7954 -74.0459 151° Southeast 331 381 18,900 -1,680 Level FlightAware ADS-B
07:03PM 40.7757 -74.0333 154° Southeast 325 374 18,400 -2,100 Descending FlightAware ADS-B
07:03PM 40.7368 -74.0089 155° Southeast 321 369 17,400 -2,100 Descending FlightAware ADS-B (KSNC)
07:04PM 40.7284 -74.0036 154° Southeast 322 371 17,200 -2,160 Descending FlightAware ADS-B
07:04PM 40.6670 -73.9640 154° Southeast 314 361 15,500 -1,920 Descending FlightAware ADS-B (KSNC)
07:06PM 40.5610 -73.9010 156° South 303 349 13,200 -1,380 Descending FlightAware
07:06PM 40.5040 -73.8680 156° South 296 341 12,700 -1,440 Descending FlightAware
07:07PM 40.4490 -73.8370 157° South 290 334 11,100 -2,160 Descending FlightAware
07:08PM 40.4220 -73.8130 146° Southeast 303 349 10,300 -1,920 Descending FlightAware
07:08PM 40.4110 -73.7700 109° East 321 369 9,600 -1,800 Descending FlightAware
07:08PM 40.4170 -73.7240 80° East 319 367 8,900 -1,740 Descending FlightAware
07:09PM 40.4230 -73.6870 78° East 314 361 8,300 -1,620 Descending FlightAware
07:09PM 40.4320 -73.6400 76° East 311 358 7,700 -1,260 Descending FlightAware
07:09PM 40.4370 -73.6080 78° East 309 356 7,400 -900 Descending FlightAware
07:10PM 40.4450 -73.5710 74° East 304 350 7,100 -420 Descending FlightAware
07:10PM 40.4690 -73.5370 47° Northeast 292 336 7,100  Level FlightAware
07:11PM 40.4940 -73.5160 33° Northeast 291 335 7,100 -120 Level FlightAware
07:11PM 40.5310 -73.4870 31° Northeast 290 334 7,000 -360 Descending FlightAware
07:11PM 40.4523 -73.5547 213° Southwest 293 337 6,900 -1,320 Descending FlightAware ADS-B (KSNC)
07:12PM 40.5950 -73.4380 32° Northeast 275 316 5,800 -1,500 Descending FlightAware
07:12PM 40.6050 -73.4370 North 268 308 5,500 -1,800 Descending FlightAware
07:13PM 40.6570 -73.4470 352° North 256 295 4,300 -1,320 Descending FlightAware
07:13PM 40.6810 -73.4580 341° North 249 287 4,100 -600 Descending FlightAware
07:14PM 40.6980 -73.4760 321° Northwest 239 275 3,900 -1,200 Descending FlightAware
07:14PM 40.7170 -73.5000 316° Northwest 237 273 3,200 -1,020 Descending FlightAware
07:15PM 40.7410 -73.5290 318° Northwest 204 235 3,000 -960 Descending FlightAware
07:15PM 40.7610 -73.5520 319° Northwest 200 230 2,300 -1,080 Descending FlightAware
07:15PM 40.7690 -73.5790 291° West 202 232 2,100 -300 Descending FlightAware
07:16PM 40.7720 -73.6050 279° West 202 232 2,100  Level FlightAware
07:16PM 40.7620 -73.6490 253° West 199 229 2,100  Level FlightAware
07:17PM 40.7470 -73.6730 230° Southwest 177 204 2,100 -120 Level FlightAware
07:17PM 40.7250 -73.6930 215° Southwest 158 182 2,000 -540 Descending FlightAware
07:18PM 40.7110 -73.7040 211° Southwest 135 155 1,600 -780 Descending FlightAware
07:18PM 40.6950 -73.7160 210° Southwest 121 139 1,300 -660 Descending FlightAware
07:19PM 40.6830 -73.7250 210° Southwest 121 139 1,000 -660 Descending FlightAware
07:19PM 40.6720 -73.7340 212° Southwest 120 138 800 -600 Descending FlightAware
07:20PM 40.6620 -73.7420 211° Southwest 123 142 600 -660 Descending FlightAware
07:20PM 40.6480 -73.7520 208° Southwest 123 142 300 -660 Descending FlightAware
07:20PM 40.6380 -73.7610 214° Southwest 110 127 -840 Descending FlightAware